Time;durP1;ratioP1;P1;durP2;ratioP2;P2;SDS_P1;SDS_P2;PMS_P1;PMS_P2;Temp;Humidity;BMP_temperature;BMP_pressure;BME280_temperature;BME280_humidity;BME280_pressure;Samples;Min_cycle;Max_cycle;Signal;HPM_P1;HPM_P2
2021/07/29 00:01:17;;;;;;;;;;;18.40;99.90;;;;;;5031127;28;19952;-88
2021/07/29 00:03:42;;;;;;;;;;;18.40;99.90;;;;;;5031043;28;19960;-87
2021/07/29 00:06:13;;;;;;;;;;;18.40;99.90;;;;;;5030950;28;19957;-88
2021/07/29 00:08:38;;;;;;;;;;;18.40;99.90;;;;;;5033216;28;19959;-88
2021/07/29 00:11:04;;;;;;;;;;;18.40;99.90;;;;;;5035860;28;20282;-88
2021/07/29 00:13:29;;;;;;;;;;;18.30;99.90;;;;;;5034602;28;20004;-88
2021/07/29 00:15:55;;;;;;;;;;;18.40;99.90;;;;;;5035869;28;19913;-88
2021/07/29 00:21:12;;;;;;;;;;;18.30;99.90;;;;;;5019659;28;19909;-88
2021/07/29 00:23:38;;;;;;;;;;;18.30;99.90;;;;;;5035585;28;19916;-88
2021/07/29 00:26:03;;;;;;;;;;;18.30;99.90;;;;;;5034864;28;20372;-88
2021/07/29 00:28:29;;;;;;;;;;;18.30;99.90;;;;;;5034406;28;20010;-88
2021/07/29 00:30:54;;;;;;;;;;;18.20;99.90;;;;;;5035342;28;19917;-88
2021/07/29 00:33:20;;;;;;;;;;;18.20;99.90;;;;;;5034340;28;19920;-88
2021/07/29 00:35:45;;;;;;;;;;;18.20;99.90;;;;;;5034068;28;20017;-88
2021/07/29 00:38:11;;;;;;;;;;;18.20;99.90;;;;;;5034012;28;19944;-88
2021/07/29 00:40:36;;;;;;;;;;;18.20;99.90;;;;;;5034180;28;19992;-88
2021/07/29 00:43:02;;;;;;;;;;;18.20;99.90;;;;;;5034140;28;19959;-88
2021/07/29 00:45:27;;;;;;;;;;;18.20;99.90;;;;;;5034367;28;19959;-88
2021/07/29 00:47:53;;;;;;;;;;;18.10;99.90;;;;;;5035111;28;20286;-87
2021/07/29 00:50:19;;;;;;;;;;;18.10;99.90;;;;;;5035126;28;19959;-88
2021/07/29 00:52:46;;;;;;;;;;;18.20;99.90;;;;;;5033893;28;20251;-88
2021/07/29 00:55:12;;;;;;;;;;;18.20;99.90;;;;;;5033827;28;19913;-88
2021/07/29 00:57:38;;;;;;;;;;;18.10;99.90;;;;;;5033722;28;20298;-87
2021/07/29 01:00:04;;;;;;;;;;;18.10;99.90;;;;;;5033775;28;19917;-88
2021/07/29 01:02:30;;;;;;;;;;;18.10;99.90;;;;;;5033385;28;19913;-88
2021/07/29 01:04:55;;;;;;;;;;;18.10;99.90;;;;;;5033634;28;19916;-88
2021/07/29 01:07:21;;;;;;;;;;;18.10;99.90;;;;;;5033686;28;19916;-88
2021/07/29 01:09:46;;;;;;;;;;;18.00;99.90;;;;;;5034820;28;19960;-88
2021/07/29 01:12:12;;;;;;;;;;;18.10;99.90;;;;;;5034855;28;19917;-88
2021/07/29 01:14:37;;;;;;;;;;;18.10;99.90;;;;;;5033462;28;19913;-88
2021/07/29 01:17:03;;;;;;;;;;;18.10;99.90;;;;;;5033493;28;19975;-88
2021/07/29 01:19:29;;;;;;;;;;;18.10;99.90;;;;;;5033086;28;19909;-88
2021/07/29 01:21:55;;;;;;;;;;;18.00;99.90;;;;;;5033218;28;20007;-88
2021/07/29 01:24:24;;;;;;;;;;;18.00;99.90;;;;;;5033271;28;20008;-88
2021/07/29 01:26:50;;;;;;;;;;;18.00;99.90;;;;;;5033243;28;19913;-88
2021/07/29 01:29:16;;;;;;;;;;;18.10;99.90;;;;;;5034517;28;19915;-88
2021/07/29 01:31:41;;;;;;;;;;;18.00;99.90;;;;;;5033036;28;20005;-88
2021/07/29 01:34:07;;;;;;;;;;;18.00;99.90;;;;;;5033156;28;20621;-88
2021/07/29 01:36:33;;;;;;;;;;;18.00;99.90;;;;;;5033312;28;19920;-88
2021/07/29 01:38:58;;;;;;;;;;;18.00;99.90;;;;;;5033073;28;19916;-88
2021/07/29 01:41:24;;;;;;;;;;;18.00;99.90;;;;;;5034295;28;20350;-88
2021/07/29 01:43:49;;;;;;;;;;;17.90;99.90;;;;;;5033977;28;19967;-88
2021/07/29 01:46:15;;;;;;;;;;;17.90;99.90;;;;;;5032881;28;19910;-88
2021/07/29 01:48:40;;;;;;;;;;;17.90;99.90;;;;;;5032971;28;20329;-88
2021/07/29 01:51:06;;;;;;;;;;;17.90;99.90;;;;;;5032888;28;19909;-88
2021/07/29 01:53:31;;;;;;;;;;;17.90;99.90;;;;;;5033972;28;19909;-88
2021/07/29 01:55:57;;;;;;;;;;;17.90;99.90;;;;;;5034144;28;19940;-88
2021/07/29 01:58:22;;;;;;;;;;;17.90;99.90;;;;;;5033889;28;19963;-87
2021/07/29 02:00:48;;;;;;;;;;;17.90;99.90;;;;;;5032713;28;20373;-88
2021/07/29 02:03:14;;;;;;;;;;;17.90;99.90;;;;;;5033918;28;19909;-88
2021/07/29 02:05:40;;;;;;;;;;;17.90;99.90;;;;;;5032436;28;19928;-88
2021/07/29 02:08:05;;;;;;;;;;;17.80;99.90;;;;;;5032413;28;19909;-88
2021/07/29 02:10:31;;;;;;;;;;;17.80;99.90;;;;;;5032450;28;20285;-88
2021/07/29 02:12:58;;;;;;;;;;;17.80;99.90;;;;;;5032308;28;19909;-88
2021/07/29 02:15:24;;;;;;;;;;;17.80;99.90;;;;;;5032283;28;19923;-88
2021/07/29 02:17:49;;;;;;;;;;;17.70;99.90;;;;;;5032357;28;19996;-88
2021/07/29 02:20:15;;;;;;;;;;;17.70;99.90;;;;;;5032180;28;19909;-88
2021/07/29 02:22:41;;;;;;;;;;;17.70;99.90;;;;;;5033565;28;19917;-88
2021/07/29 02:25:07;;;;;;;;;;;17.70;99.90;;;;;;5032649;28;20092;-88
2021/07/29 02:27:33;;;;;;;;;;;17.70;99.90;;;;;;5033248;28;19948;-88
2021/07/29 02:29:58;;;;;;;;;;;17.70;99.90;;;;;;5031655;28;19967;-88
2021/07/29 02:32:24;;;;;;;;;;;17.60;99.90;;;;;;5031894;28;19913;-88
2021/07/29 02:34:51;;;;;;;;;;;17.60;99.90;;;;;;5033179;28;20281;-88
2021/07/29 02:37:17;;;;;;;;;;;17.60;99.90;;;;;;5034368;28;19908;-88
2021/07/29 02:39:43;;;;;;;;;;;17.60;99.90;;;;;;5035429;28;20389;-88
2021/07/29 02:42:08;;;;;;;;;;;17.50;99.90;;;;;;5034255;28;19964;-88
2021/07/29 02:44:34;;;;;;;;;;;17.60;99.90;;;;;;5031693;28;19975;-88
2021/07/29 02:47:00;;;;;;;;;;;17.60;99.90;;;;;;5031750;28;19968;-88
2021/07/29 02:49:25;;;;;;;;;;;17.50;99.90;;;;;;5032982;28;20270;-88
2021/07/29 02:51:51;;;;;;;;;;;17.50;99.90;;;;;;5031789;28;19916;-88
2021/07/29 02:54:16;;;;;;;;;;;17.50;99.90;;;;;;5031739;28;19909;-88
2021/07/29 02:56:42;;;;;;;;;;;17.50;99.90;;;;;;5032877;28;19920;-88
2021/07/29 02:59:07;;;;;;;;;;;17.50;99.90;;;;;;5034284;28;19909;-87
2021/07/29 03:01:33;;;;;;;;;;;17.50;99.90;;;;;;5033955;28;19940;-88
2021/07/29 03:03:58;;;;;;;;;;;17.50;99.90;;;;;;5032303;28;19916;-88
2021/07/29 03:06:24;;;;;;;;;;;17.50;99.90;;;;;;5031693;28;20380;-88
2021/07/29 03:08:49;;;;;;;;;;;17.50;99.90;;;;;;5031747;28;19920;-88
2021/07/29 03:11:16;;;;;;;;;;;17.50;99.90;;;;;;5031460;28;19955;-88
2021/07/29 03:13:41;;;;;;;;;;;17.50;99.90;;;;;;5031516;28;19918;-88
2021/07/29 03:16:07;;;;;;;;;;;17.50;99.90;;;;;;5031438;28;19984;-88
2021/07/29 03:18:32;;;;;;;;;;;17.50;99.90;;;;;;5031486;28;19916;-88
2021/07/29 03:20:58;;;;;;;;;;;17.50;99.90;;;;;;5031404;28;19944;-88
2021/07/29 03:23:24;;;;;;;;;;;17.50;99.90;;;;;;5032644;28;19952;-88
2021/07/29 03:25:51;;;;;;;;;;;17.50;99.90;;;;;;5032689;28;19913;-88
2021/07/29 03:28:17;;;;;;;;;;;17.50;99.90;;;;;;5031390;28;19909;-88
2021/07/29 03:30:43;;;;;;;;;;;17.50;99.90;;;;;;5031580;28;20385;-88
2021/07/29 03:33:10;;;;;;;;;;;17.50;99.90;;;;;;5031379;28;19909;-88
2021/07/29 03:35:39;;;;;;;;;;;17.50;99.90;;;;;;5031333;28;20382;-87
2021/07/29 03:38:05;;;;;;;;;;;17.50;99.90;;;;;;5031390;28;20294;-87
2021/07/29 03:40:31;;;;;;;;;;;17.60;99.90;;;;;;5031212;28;19914;-88
2021/07/29 03:42:59;;;;;;;;;;;17.60;99.90;;;;;;5034214;28;19909;-88
2021/07/29 03:45:25;;;;;;;;;;;17.60;99.90;;;;;;5035181;28;19962;-87
2021/07/29 03:47:50;;;;;;;;;;;17.60;99.90;;;;;;5035118;28;20343;-87
2021/07/29 03:50:16;;;;;;;;;;;17.60;99.90;;;;;;5034555;28;19909;-87
2021/07/29 03:52:41;;;;;;;;;;;17.60;99.90;;;;;;5034971;28;19918;-87
2021/07/29 03:55:07;;;;;;;;;;;17.60;99.90;;;;;;5035214;28;20412;-88
2021/07/29 03:57:33;;;;;;;;;;;17.60;99.90;;;;;;5035043;28;19916;-87
2021/07/29 03:59:58;;;;;;;;;;;17.60;99.90;;;;;;5034647;28;19909;-88
2021/07/29 04:02:24;;;;;;;;;;;17.60;99.90;;;;;;5034913;28;19909;-88
2021/07/29 04:04:49;;;;;;;;;;;17.60;99.90;;;;;;5035157;28;20008;-88
2021/07/29 04:07:15;;;;;;;;;;;17.70;99.90;;;;;;5034852;28;19909;-87
2021/07/29 04:09:40;;;;;;;;;;;17.70;99.90;;;;;;5034191;28;20357;-88
2021/07/29 04:12:06;;;;;;;;;;;17.70;99.90;;;;;;5035017;28;19917;-88
2021/07/29 04:14:32;;;;;;;;;;;17.70;99.90;;;;;;5034817;28;19909;-88
2021/07/29 04:16:57;;;;;;;;;;;17.70;99.90;;;;;;5034766;28;19913;-88
2021/07/29 04:19:23;;;;;;;;;;;17.70;99.90;;;;;;5034323;28;20274;-88
2021/07/29 04:21:49;;;;;;;;;;;17.70;99.90;;;;;;5035815;28;19909;-88
2021/07/29 04:24:18;;;;;;;;;;;17.60;99.90;;;;;;5035877;28;19954;-87
2021/07/29 04:26:43;;;;;;;;;;;17.60;99.90;;;;;;5034762;28;19913;-88
2021/07/29 04:29:09;;;;;;;;;;;17.70;99.90;;;;;;5034366;28;20289;-88
2021/07/29 04:31:35;;;;;;;;;;;17.60;99.90;;;;;;5036026;28;19964;-88
2021/07/29 04:34:00;;;;;;;;;;;17.70;99.90;;;;;;5034539;28;19909;-87
2021/07/29 04:36:26;;;;;;;;;;;17.70;99.90;;;;;;5035567;28;20385;-87
2021/07/29 04:38:51;;;;;;;;;;;17.70;99.90;;;;;;5034003;28;20286;-87
2021/07/29 04:41:17;;;;;;;;;;;17.70;99.90;;;;;;5035458;28;19909;-87
2021/07/29 04:43:42;;;;;;;;;;;17.70;99.90;;;;;;5034222;28;20297;-88
2021/07/29 04:46:08;;;;;;;;;;;17.70;99.90;;;;;;5034069;28;19909;-88
2021/07/29 04:48:33;;;;;;;;;;;17.70;99.90;;;;;;5034035;28;19909;-88
2021/07/29 04:51:02;;;;;;;;;;;17.70;99.90;;;;;;5033091;28;19964;-88
2021/07/29 04:53:27;;;;;;;;;;;17.70;99.10;;;;;;5034382;28;19940;-88
2021/07/29 04:55:53;;;;;;;;;;;17.70;99.20;;;;;;5034028;28;20337;-87
2021/07/29 04:58:18;;;;;;;;;;;17.70;99.30;;;;;;5033751;28;20282;-88
2021/07/29 05:00:44;;;;;;;;;;;17.70;98.90;;;;;;5033168;28;19909;-88
2021/07/29 05:03:09;;;;;;;;;;;17.60;99.00;;;;;;5034730;28;19959;-87
2021/07/29 05:05:35;;;;;;;;;;;17.70;98.80;;;;;;5033600;28;19917;-88
2021/07/29 05:08:00;;;;;;;;;;;17.70;98.50;;;;;;5033443;28;20376;-87
2021/07/29 05:10:26;;;;;;;;;;;17.60;98.30;;;;;;5033114;28;20039;-87
2021/07/29 05:12:51;;;;;;;;;;;17.60;98.20;;;;;;5033737;28;19913;-87
2021/07/29 05:15:17;;;;;;;;;;;17.70;98.30;;;;;;5033496;28;20313;-88
2021/07/29 05:17:42;;;;;;;;;;;17.60;98.50;;;;;;5033803;28;20373;-87
2021/07/29 05:20:10;;;;;;;;;;;17.60;98.80;;;;;;5034173;28;20358;-88
2021/07/29 05:22:35;;;;;;;;;;;17.60;98.70;;;;;;5033340;28;19909;-89
2021/07/29 05:25:01;;;;;;;;;;;17.60;98.80;;;;;;5034945;28;19955;-89
2021/07/29 05:27:27;;;;;;;;;;;17.60;98.80;;;;;;5033402;28;20396;-88
2021/07/29 05:29:52;;;;;;;;;;;17.60;98.60;;;;;;5033022;28;19977;-88
2021/07/29 05:32:18;;;;;;;;;;;17.60;98.40;;;;;;5032695;28;19956;-88
2021/07/29 05:34:47;;;;;;;;;;;17.70;98.30;;;;;;5034858;28;19921;-90
2021/07/29 05:37:12;;;;;;;;;;;17.70;98.40;;;;;;5033620;28;20016;-88
2021/07/29 05:39:38;;;;;;;;;;;17.60;98.20;;;;;;5032432;28;19989;-87
2021/07/29 05:42:03;;;;;;;;;;;17.70;98.10;;;;;;5032886;28;20003;-88
2021/07/29 05:44:29;;;;;;;;;;;17.70;97.90;;;;;;5034262;28;19920;-88
2021/07/29 05:46:54;;;;;;;;;;;17.70;98.00;;;;;;5034136;28;19916;-88
2021/07/29 05:49:20;;;;;;;;;;;17.70;97.80;;;;;;5032314;28;20055;-88
2021/07/29 05:51:45;;;;;;;;;;;17.70;97.60;;;;;;5032763;28;20366;-88
2021/07/29 05:54:11;;;;;;;;;;;17.70;97.70;;;;;;5033850;28;19951;-87
2021/07/29 05:56:37;;;;;;;;;;;17.70;97.60;;;;;;5032485;28;19920;-88
2021/07/29 05:59:02;;;;;;;;;;;17.70;97.50;;;;;;5033251;28;19909;-88
2021/07/29 06:01:28;;;;;;;;;;;17.70;97.70;;;;;;5032310;28;19932;-88
2021/07/29 06:03:53;;;;;;;;;;;17.70;97.70;;;;;;5032347;28;20366;-88
2021/07/29 06:06:19;;;;;;;;;;;17.80;97.70;;;;;;5031211;28;20015;-87
2021/07/29 06:08:46;;;;;;;;;;;17.80;97.80;;;;;;5033455;28;19909;-87
2021/07/29 06:11:12;;;;;;;;;;;17.80;97.90;;;;;;5031816;28;19909;-89
2021/07/29 06:13:37;;;;;;;;;;;17.70;97.90;;;;;;5032227;28;19916;-88
2021/07/29 06:16:06;;;;;;;;;;;17.80;97.80;;;;;;5032043;28;19928;-88
2021/07/29 06:18:34;;;;;;;;;;;17.80;97.70;;;;;;5032113;28;19909;-89
2021/07/29 06:21:02;;;;;;;;;;;17.80;97.70;;;;;;5031418;28;20537;-88
2021/07/29 06:23:27;;;;;;;;;;;17.80;97.50;;;;;;5031938;28;19909;-88
2021/07/29 06:25:52;;;;;;;;;;;17.80;97.60;;;;;;5031977;28;19971;-88
2021/07/29 06:28:18;;;;;;;;;;;17.90;97.50;;;;;;5033138;28;19913;-88
2021/07/29 06:30:44;;;;;;;;;;;17.90;97.30;;;;;;5033327;28;20008;-88
2021/07/29 06:33:09;;;;;;;;;;;18.00;97.20;;;;;;5035624;28;19913;-88
2021/07/29 06:35:35;;;;;;;;;;;18.00;97.20;;;;;;5033836;28;19944;-88
2021/07/29 06:38:00;;;;;;;;;;;18.00;96.60;;;;;;5033776;28;19909;-88
2021/07/29 06:40:26;;;;;;;;;;;18.00;96.40;;;;;;5033761;28;20355;-88
2021/07/29 06:42:51;;;;;;;;;;;18.00;96.70;;;;;;5032906;28;19916;-88
2021/07/29 06:45:17;;;;;;;;;;;18.00;96.50;;;;;;5033319;28;19915;-87
2021/07/29 06:47:42;;;;;;;;;;;18.00;96.50;;;;;;5032150;28;20255;-88
2021/07/29 06:50:08;;;;;;;;;;;18.00;96.70;;;;;;5032739;28;20001;-87
2021/07/29 06:52:34;;;;;;;;;;;18.10;96.40;;;;;;5031783;28;19918;-87
2021/07/29 06:54:59;;;;;;;;;;;18.00;96.50;;;;;;5034870;28;19964;-88
2021/07/29 06:57:25;;;;;;;;;;;18.10;96.30;;;;;;5033583;28;19910;-88
2021/07/29 06:59:50;;;;;;;;;;;18.10;96.20;;;;;;5033674;28;20385;-88
2021/07/29 07:02:16;;;;;;;;;;;18.10;96.20;;;;;;5032529;28;20008;-88
2021/07/29 07:04:41;;;;;;;;;;;18.10;96.00;;;;;;5033174;28;20365;-88
2021/07/29 07:07:16;;;;;;;;;;;18.10;95.90;;;;;;5031641;28;19991;-88
2021/07/29 07:09:42;;;;;;;;;;;18.20;95.70;;;;;;5031225;28;20485;-88
2021/07/29 07:12:08;;;;;;;;;;;18.20;95.70;;;;;;5032989;28;19957;-88
2021/07/29 07:14:33;;;;;;;;;;;18.20;95.60;;;;;;5031738;28;19910;-88
2021/07/29 07:16:59;;;;;;;;;;;18.20;95.40;;;;;;5032507;28;19916;-88
2021/07/29 07:19:24;;;;;;;;;;;18.20;95.20;;;;;;5031377;28;19909;-88
2021/07/29 07:21:50;;;;;;;;;;;18.20;95.20;;;;;;5031562;28;19913;-88
2021/07/29 07:24:15;;;;;;;;;;;18.20;95.10;;;;;;5033035;28;19916;-88
2021/07/29 07:26:41;;;;;;;;;;;18.20;95.10;;;;;;5032545;28;19916;-88
2021/07/29 07:29:06;;;;;;;;;;;18.20;94.70;;;;;;5032579;28;20001;-88
2021/07/29 07:31:32;;;;;;;;;;;18.20;94.40;;;;;;5031307;28;20389;-88
2021/07/29 07:33:58;;;;;;;;;;;18.20;94.30;;;;;;5031522;28;19909;-88
2021/07/29 07:36:24;;;;;;;;;;;18.20;93.90;;;;;;5031402;28;19913;-87
2021/07/29 07:38:53;;;;;;;;;;;18.10;94.10;;;;;;5032378;28;19992;-87
2021/07/29 07:41:19;;;;;;;;;;;18.20;94.70;;;;;;5031367;28;19913;-87
2021/07/29 07:43:45;;;;;;;;;;;18.20;94.40;;;;;;5031454;28;19916;-88
2021/07/29 07:46:10;;;;;;;;;;;18.30;94.10;;;;;;5031062;28;19913;-88
2021/07/29 07:48:36;;;;;;;;;;;18.30;94.30;;;;;;5031094;28;19909;-88
2021/07/29 07:51:01;;;;;;;;;;;18.30;94.50;;;;;;5032430;28;19916;-88
2021/07/29 07:53:29;;;;;;;;;;;18.40;93.80;;;;;;5033023;28;20380;-88
2021/07/29 07:55:54;;;;;;;;;;;18.40;93.50;;;;;;5032269;28;19913;-87
2021/07/29 07:58:20;;;;;;;;;;;18.40;93.70;;;;;;5031836;28;19920;-88
2021/07/29 08:00:45;;;;;;;;;;;18.50;93.70;;;;;;5031031;28;20328;-87
2021/07/29 08:03:12;;;;;;;;;;;18.60;93.00;;;;;;5030953;28;19995;-88
2021/07/29 08:05:37;;;;;;;;;;;18.60;93.30;;;;;;5030985;28;20043;-88
2021/07/29 08:08:06;;;;;;;;;;;18.60;93.30;;;;;;5030768;28;19952;-88
2021/07/29 08:10:32;;;;;;;;;;;18.60;93.20;;;;;;5030801;28;20358;-87
2021/07/29 08:12:57;;;;;;;;;;;18.60;93.00;;;;;;5031061;28;19917;-87
2021/07/29 08:15:23;;;;;;;;;;;18.60;93.10;;;;;;5030664;28;19963;-88
2021/07/29 08:17:49;;;;;;;;;;;18.60;93.20;;;;;;5030781;28;19916;-88
2021/07/29 08:20:18;;;;;;;;;;;18.70;92.90;;;;;;5030713;28;19909;-88
2021/07/29 08:22:43;;;;;;;;;;;18.70;93.10;;;;;;5032028;28;19916;-88
2021/07/29 08:25:09;;;;;;;;;;;18.70;92.80;;;;;;5030793;28;20301;-88
2021/07/29 08:27:35;;;;;;;;;;;18.70;92.30;;;;;;5030763;28;20549;-88
2021/07/29 08:30:01;;;;;;;;;;;18.60;92.30;;;;;;5034883;28;20000;-88
2021/07/29 08:32:27;;;;;;;;;;;18.70;92.70;;;;;;5034419;28;20495;-88
2021/07/29 08:34:53;;;;;;;;;;;18.70;92.50;;;;;;5034167;28;19913;-88
2021/07/29 08:37:18;;;;;;;;;;;18.80;92.00;;;;;;5034153;28;19960;-88
2021/07/29 08:39:44;;;;;;;;;;;18.80;92.00;;;;;;5033954;28;19909;-88
2021/07/29 08:42:10;;;;;;;;;;;18.80;91.80;;;;;;5034068;28;19936;-88
2021/07/29 08:44:36;;;;;;;;;;;18.80;91.40;;;;;;5034058;28;19972;-87
2021/07/29 08:47:06;;;;;;;;;;;18.80;91.40;;;;;;5033992;28;19909;-87
2021/07/29 08:49:32;;;;;;;;;;;18.80;91.90;;;;;;5033820;28;20286;-88
2021/07/29 08:51:58;;;;;;;;;;;18.90;91.70;;;;;;5034031;28;19986;-88
2021/07/29 08:54:23;;;;;;;;;;;18.90;91.10;;;;;;5033871;28;19909;-88
2021/07/29 08:56:49;;;;;;;;;;;19.00;91.40;;;;;;5033690;28;20094;-87
2021/07/29 08:59:15;;;;;;;;;;;19.00;91.10;;;;;;5033683;28;19913;-88
2021/07/29 09:01:44;;;;;;;;;;;19.10;91.00;;;;;;5033634;28;20321;-88
2021/07/29 09:04:11;;;;;;;;;;;19.10;90.90;;;;;;5034918;28;19921;-88
2021/07/29 09:06:52;;;;;;;;;;;19.20;90.40;;;;;;5034920;28;20453;-87
2021/07/29 09:09:40;;;;;;;;;;;19.20;89.90;;;;;;5033483;28;20501;-88
2021/07/29 09:12:17;;;;;;;;;;;19.20;89.50;;;;;;5033625;28;19909;-88
2021/07/29 09:14:44;;;;;;;;;;;19.20;89.40;;;;;;5033710;28;20398;-88
2021/07/29 09:17:09;;;;;;;;;;;19.20;88.90;;;;;;5033285;28;19956;-87
2021/07/29 09:19:36;;;;;;;;;;;19.20;89.70;;;;;;5034346;28;19978;-88
2021/07/29 09:22:05;;;;;;;;;;;19.30;90.30;;;;;;5033265;28;19909;-88
2021/07/29 09:24:30;;;;;;;;;;;19.30;90.10;;;;;;5033376;28;19913;-88
2021/07/29 09:26:57;;;;;;;;;;;19.30;90.00;;;;;;5033151;28;19909;-88
2021/07/29 09:29:23;;;;;;;;;;;19.30;89.40;;;;;;5033573;28;19983;-88
2021/07/29 09:31:53;;;;;;;;;;;19.30;88.30;;;;;;5034443;28;20354;-88
2021/07/29 09:34:19;;;;;;;;;;;19.40;89.00;;;;;;5033095;28;19909;-88
2021/07/29 09:36:44;;;;;;;;;;;19.40;87.60;;;;;;5033046;28;20003;-88
2021/07/29 09:39:20;;;;;;;;;;;19.40;88.40;;;;;;5034049;28;19913;-88
2021/07/29 09:41:47;;;;;;;;;;;19.40;88.60;;;;;;5033051;28;20342;-88
2021/07/29 09:44:14;;;;;;;;;;;19.40;87.20;;;;;;5032997;28;19909;-88
2021/07/29 09:46:39;;;;;;;;;;;19.40;87.30;;;;;;5034074;28;19942;-88
2021/07/29 09:49:05;;;;;;;;;;;19.50;87.40;;;;;;5032861;28;19913;-88
2021/07/29 09:51:31;;;;;;;;;;;19.50;85.70;;;;;;5032761;28;19913;-88
2021/07/29 09:53:57;;;;;;;;;;;19.50;86.20;;;;;;5033907;28;20370;-88
2021/07/29 09:56:22;;;;;;;;;;;19.60;86.40;;;;;;5032574;28;19923;-88
2021/07/29 09:58:48;;;;;;;;;;;19.70;85.60;;;;;;5032811;28;19917;-88
2021/07/29 10:01:15;;;;;;;;;;;19.70;85.30;;;;;;5032843;28;19921;-88
2021/07/29 10:03:47;;;;;;;;;;;19.70;85.50;;;;;;5032613;28;19935;-88
2021/07/29 10:06:15;;;;;;;;;;;19.80;85.90;;;;;;5032799;28;19941;-88
2021/07/29 10:08:48;;;;;;;;;;;19.80;85.70;;;;;;5032844;28;20326;-88
2021/07/29 10:11:16;;;;;;;;;;;19.90;85.00;;;;;;5032491;28;20223;-88
2021/07/29 10:13:42;;;;;;;;;;;20.00;84.60;;;;;;5032467;28;19909;-88
2021/07/29 10:16:08;;;;;;;;;;;20.00;84.60;;;;;;5033535;28;19975;-88
2021/07/29 10:19:00;;;;;;;;;;;20.00;84.20;;;;;;5032386;28;19913;-88
2021/07/29 10:21:28;;;;;;;;;;;20.00;84.50;;;;;;5027732;28;19932;-88
2021/07/29 10:23:56;;;;;;;;;;;20.00;83.90;;;;;;5032225;28;19909;-88
2021/07/29 10:26:22;;;;;;;;;;;20.10;83.70;;;;;;5032309;28;19951;-88
2021/07/29 10:28:47;;;;;;;;;;;20.10;83.00;;;;;;5032234;28;19955;-88
2021/07/29 10:31:14;;;;;;;;;;;20.20;83.30;;;;;;5032015;28;19917;-89
2021/07/29 10:33:40;;;;;;;;;;;20.20;83.50;;;;;;5032176;28;20411;-88
2021/07/29 10:36:06;;;;;;;;;;;20.10;83.60;;;;;;5032727;28;19976;-88
2021/07/29 10:38:37;;;;;;;;;;;20.10;84.20;;;;;;5032243;28;20427;-88
2021/07/29 10:41:05;;;;;;;;;;;20.10;84.50;;;;;;5032075;28;19916;-88
2021/07/29 10:43:31;;;;;;;;;;;20.00;83.20;;;;;;5033248;28;19913;-88
2021/07/29 10:45:57;;;;;;;;;;;20.00;83.90;;;;;;5031903;28;20300;-88
2021/07/29 10:48:42;;;;;;;;;;;19.90;83.80;;;;;;5031731;28;19909;-89
2021/07/29 10:51:18;;;;;;;;;;;19.90;84.40;;;;;;5031228;28;19952;-89
2021/07/29 10:53:47;;;;;;;;;;;19.90;84.70;;;;;;5031771;28;19909;-88
2021/07/29 10:56:13;;;;;;;;;;;20.00;81.40;;;;;;5031652;28;20200;-88
2021/07/29 10:58:42;;;;;;;;;;;20.00;82.30;;;;;;5031874;28;19916;-88
2021/07/29 11:01:11;;;;;;;;;;;20.00;82.40;;;;;;5033258;28;19909;-88
2021/07/29 11:03:51;;;;;;;;;;;20.10;81.40;;;;;;5031791;28;19932;-88
2021/07/29 11:06:23;;;;;;;;;;;20.10;81.30;;;;;;5031715;28;19909;-88
2021/07/29 11:08:49;;;;;;;;;;;20.20;81.70;;;;;;5031586;28;19913;-88
2021/07/29 11:11:15;;;;;;;;;;;20.20;82.10;;;;;;5032009;28;19962;-88
2021/07/29 11:13:44;;;;;;;;;;;20.30;82.10;;;;;;5033363;28;19909;-88
2021/07/29 11:16:10;;;;;;;;;;;20.40;82.50;;;;;;5033278;28;19921;-87
2021/07/29 11:18:36;;;;;;;;;;;20.40;82.40;;;;;;5033227;28;19915;-88
2021/07/29 11:21:14;;;;;;;;;;;20.40;82.30;;;;;;5032720;28;19910;-88
2021/07/29 11:23:40;;;;;;;;;;;20.50;82.60;;;;;;5031395;28;20016;-88
2021/07/29 11:26:05;;;;;;;;;;;20.50;83.00;;;;;;5031438;28;20396;-89
2021/07/29 11:28:40;;;;;;;;;;;20.50;83.20;;;;;;5032159;28;20000;-88
2021/07/29 11:31:06;;;;;;;;;;;20.60;82.20;;;;;;5031729;28;19921;-88
2021/07/29 11:33:31;;;;;;;;;;;20.60;81.70;;;;;;5031085;28;19931;-88
2021/07/29 11:36:06;;;;;;;;;;;20.60;78.70;;;;;;5031336;28;19920;-88
2021/07/29 11:38:32;;;;;;;;;;;20.60;79.30;;;;;;5032507;28;19924;-88
2021/07/29 11:41:01;;;;;;;;;;;20.60;79.00;;;;;;5031360;28;19910;-88
2021/07/29 11:43:28;;;;;;;;;;;20.60;80.70;;;;;;5031535;28;19910;-88
2021/07/29 11:46:03;;;;;;;;;;;20.70;80.60;;;;;;5031307;28;20324;-87
2021/07/29 11:48:29;;;;;;;;;;;20.80;77.80;;;;;;5031121;28;19956;-87
2021/07/29 11:50:54;;;;;;;;;;;20.70;77.20;;;;;;5031086;28;19910;-88
2021/07/29 11:53:20;;;;;;;;;;;20.70;78.30;;;;;;5031065;28;19913;-89
2021/07/29 11:55:55;;;;;;;;;;;20.70;78.60;;;;;;5032237;28;20290;-88
2021/07/29 11:58:21;;;;;;;;;;;20.60;79.00;;;;;;5031013;28;19920;-88
2021/07/29 12:00:48;;;;;;;;;;;20.70;78.00;;;;;;5030916;28;20004;-88
2021/07/29 12:03:46;;;;;;;;;;;20.80;77.50;;;;;;5031142;28;20008;-88
2021/07/29 12:06:14;;;;;;;;;;;20.80;75.20;;;;;;4991874;28;19915;-88
2021/07/29 12:08:42;;;;;;;;;;;20.80;75.50;;;;;;5034758;28;19917;-88
2021/07/29 12:11:09;;;;;;;;;;;20.90;75.60;;;;;;5034571;28;19956;-88
2021/07/29 12:13:38;;;;;;;;;;;20.90;76.80;;;;;;5034532;28;19979;-88
2021/07/29 12:16:03;;;;;;;;;;;21.00;75.60;;;;;;5035880;28;19920;-88
2021/07/29 12:18:29;;;;;;;;;;;21.10;75.60;;;;;;5034496;28;20286;-88
2021/07/29 12:20:55;;;;;;;;;;;21.10;75.50;;;;;;5034459;28;19909;-88
2021/07/29 12:23:21;;;;;;;;;;;21.20;74.40;;;;;;5035619;28;19909;-89
2021/07/29 12:25:48;;;;;;;;;;;21.20;74.70;;;;;;5035897;28;20422;-88
2021/07/29 12:28:14;;;;;;;;;;;21.30;74.70;;;;;;5035545;28;19924;-88
2021/07/29 12:30:43;;;;;;;;;;;21.30;74.60;;;;;;5034035;28;19924;-88
2021/07/29 12:33:08;;;;;;;;;;;21.30;72.70;;;;;;5034294;28;19956;-88
2021/07/29 12:35:35;;;;;;;;;;;21.30;73.80;;;;;;5034086;28;20267;-88
2021/07/29 12:38:00;;;;;;;;;;;21.30;73.20;;;;;;5034087;28;19913;-88
2021/07/29 12:40:27;;;;;;;;;;;21.30;74.30;;;;;;5033979;28;20273;-88
2021/07/29 12:42:53;;;;;;;;;;;21.20;74.00;;;;;;5034068;28;20288;-88
2021/07/29 12:45:19;;;;;;;;;;;21.20;74.70;;;;;;5034061;28;19956;-88
2021/07/29 12:48:03;;;;;;;;;;;21.30;75.10;;;;;;5033765;28;19945;-88
2021/07/29 12:50:35;;;;;;;;;;;21.30;73.80;;;;;;5034141;28;20368;-88
2021/07/29 12:53:11;;;;;;;;;;;21.30;73.60;;;;;;5034529;28;19920;-88
2021/07/29 12:55:38;;;;;;;;;;;21.30;73.40;;;;;;5034238;28;19913;-88
2021/07/29 12:58:04;;;;;;;;;;;21.30;72.50;;;;;;5033681;28;20369;-88
2021/07/29 13:00:29;;;;;;;;;;;21.30;72.40;;;;;;5033651;28;19909;-88
2021/07/29 13:02:55;;;;;;;;;;;21.40;72.20;;;;;;5033770;28;19925;-88
2021/07/29 13:05:20;;;;;;;;;;;21.40;72.00;;;;;;5033918;28;19909;-88
2021/07/29 13:07:48;;;;;;;;;;;21.40;71.80;;;;;;5034945;28;19910;-87
2021/07/29 13:10:13;;;;;;;;;;;21.50;71.80;;;;;;5033522;28;19909;-88
2021/07/29 13:12:39;;;;;;;;;;;21.50;70.60;;;;;;5033610;28;20143;-88
2021/07/29 13:15:05;;;;;;;;;;;21.50;71.50;;;;;;5032957;28;19920;-88
2021/07/29 13:17:30;;;;;;;;;;;21.50;72.40;;;;;;5033437;28;19917;-88
2021/07/29 13:20:02;;;;;;;;;;;21.60;70.70;;;;;;5034553;28;20007;-88
2021/07/29 13:22:27;;;;;;;;;;;21.60;69.50;;;;;;5033640;28;20381;-88
2021/07/29 13:24:55;;;;;;;;;;;21.60;70.20;;;;;;5033385;28;19909;-88
2021/07/29 13:27:29;;;;;;;;;;;21.50;71.30;;;;;;5033198;28;19962;-87
2021/07/29 13:29:55;;;;;;;;;;;21.50;71.70;;;;;;5032974;28;19941;-88
2021/07/29 13:32:20;;;;;;;;;;;21.40;71.80;;;;;;5033130;28;20394;-88
2021/07/29 13:34:46;;;;;;;;;;;21.50;71.70;;;;;;5033039;28;20008;-88
2021/07/29 13:37:11;;;;;;;;;;;21.60;70.00;;;;;;5034289;28;19915;-88
2021/07/29 13:39:38;;;;;;;;;;;21.60;70.70;;;;;;5034193;28;19913;-88
2021/07/29 13:42:03;;;;;;;;;;;21.70;71.00;;;;;;5033043;28;19909;-88
2021/07/29 13:44:29;;;;;;;;;;;21.70;69.50;;;;;;5032915;28;20421;-88
2021/07/29 13:46:55;;;;;;;;;;;21.90;69.30;;;;;;5032899;28;19919;-88
2021/07/29 13:49:20;;;;;;;;;;;21.90;69.60;;;;;;5032815;28;20285;-88
2021/07/29 13:51:47;;;;;;;;;;;21.90;69.70;;;;;;5034034;28;19959;-88
2021/07/29 13:54:12;;;;;;;;;;;22.00;68.50;;;;;;5032891;28;19909;-88
2021/07/29 13:56:38;;;;;;;;;;;22.00;69.10;;;;;;5032559;28;19921;-88
2021/07/29 13:59:03;;;;;;;;;;;22.00;68.00;;;;;;5032597;28;19909;-88
2021/07/29 14:01:29;;;;;;;;;;;22.00;67.20;;;;;;5032656;28;19916;-88
2021/07/29 14:03:55;;;;;;;;;;;22.00;68.30;;;;;;5032457;28;20382;-88
2021/07/29 14:06:21;;;;;;;;;;;21.90;66.90;;;;;;5032452;28;20016;-89
2021/07/29 14:08:47;;;;;;;;;;;22.00;67.20;;;;;;5032429;28;19992;-88
2021/07/29 14:11:13;;;;;;;;;;;22.10;66.80;;;;;;5032459;28;19910;-88
2021/07/29 14:13:39;;;;;;;;;;;22.20;67.20;;;;;;5032778;28;20007;-88
2021/07/29 14:16:05;;;;;;;;;;;22.30;66.50;;;;;;5033875;28;20273;-88